Terminal Aerodrome Forecast
Issued by NWS Upton, NY

Home | Current Version | Previous Version | Text Only | Print | Product List | Glossary On
Versions: 1 2 3 4 5 6 7 8 9 10 11 12 13 14 15 16 17 18 19 20 21 22 23 24 25 26 27 28 29 30 31 32 33 34 35 36 37 38
000
FTUS41 KOKX 290230 AAA
TAFJFK
TAF AMD
KJFK 290230Z 2903/3006 33013G20KT P6SM BKN050 BKN100
      TEMPO 2903/2904 5SM -SN
     FM290700 34014G22KT P6SM SCT050 SCT250
     FM291400 34012KT P6SM SCT250
     FM292000 25010KT P6SM SCT250
     FM292300 21009KT P6SM SCT250
     FM300300 19009KT P6SM SCT250=

USA.gov is the U.S. government's official web portal to all federal, state and local government web resources and services.